Historique des stations

Station météo de Saint-Firmin-des-Bois

Altitude de la station : 148 m







Données météorologiques pour le 03/03/2021
Date
Heure
Températures Humidité Point de rosée Vitesse
du vent
Direction Rafales Windchill Pression Pluviométrie
Cumul
Date
Heure
Températures Humidité Point de rosée Vitesse
du vent
Direction Rafales Windchill Pression Pluviométrie
Cumul
03/03/2021 22:149.9 °C69 %4.4 °C5 km/hS11 km/h9.4 1027 hPa-
03/03/2021 21:599.9 °C71 %5.0 °C6 km/hS11 km/h8.9 1027 hPa-
03/03/2021 21:449.9 °C71 %5.0 °C6 km/hS11 km/h8.9 1027 hPa-
03/03/2021 21:2910.2 °C70 %5.0 °C6 km/hS11 km/h8.9 1027 hPa-
03/03/2021 21:1410.6 °C69 %5.0 °C5 km/hS11 km/h10.6 1028 hPa-
03/03/2021 20:5910.6 °C70 %5.6 °C5 km/hS11 km/h10.6 1028 hPa-
03/03/2021 20:4410.4 °C71 %5.6 °C5 km/hS11 km/h10.6 1028 hPa-
03/03/2021 20:2910.8 °C71 %5.6 °C3 km/hS11 km/h10.6 1028 hPa-
03/03/2021 20:1411.2 °C70 %6.1 °C5 km/hS11 km/h11.1 1028 hPa-
03/03/2021 19:5911.3 °C69 %5.6 °C6 km/hS11 km/h11.1 1028 hPa-
03/03/2021 19:4411.6 °C69 %6.1 °C3 km/hSSO11 km/h11.7 1028 hPa-
03/03/2021 19:2911.6 °C68 %6.1 °C5 km/hSSO11 km/h11.7 1028 hPa-
03/03/2021 19:1411.4 °C70 %6.1 °C5 km/hSSO11 km/h11.7 1028 hPa-
03/03/2021 18:5911.4 °C71 %6.1 °C3 km/hS11 km/h11.7 1028 hPa-
03/03/2021 18:4411.8 °C70 %6.7 °C3 km/hS11 km/h11.7 1028 hPa-
03/03/2021 18:2912.1 °C70 %6.7 °C3 km/hS11 km/h12.2 1028 hPa-
03/03/2021 18:1412.7 °C69 %7.2 °C3 km/hS11 km/h12.8 1028 hPa-
03/03/2021 17:5913.4 °C66 %7.2 °C3 km/hSSO11 km/h13.3 1028 hPa-
03/03/2021 17:4414.2 °C62 %6.7 °C6 km/hSSO11 km/h14.4 1028 hPa-
03/03/2021 17:2914.6 °C60 %6.7 °C8 km/hS11 km/h14.4 1028 hPa-
03/03/2021 17:1415.1 °C61 %7.2 °C6 km/hS11 km/h15.0 1028 hPa-
03/03/2021 16:5915.5 °C59 %7.2 °C5 km/hSSE11 km/h15.6 1028 hPa-
03/03/2021 16:4415.9 °C58 %7.8 °C6 km/hSSE11 km/h16.1 1028 hPa-
03/03/2021 16:2916.0 °C56 %7.2 °C3 km/hS11 km/h16.1 1028 hPa-
03/03/2021 16:1516.1 °C56 %7.2 °C5 km/hSSE11 km/h16.1 1028 hPa-
03/03/2021 16:0016.3 °C57 %7.8 °C6 km/hSSE11 km/h16.1 1028 hPa-
03/03/2021 15:4516.2 °C56 %7.2 °C6 km/hS11 km/h16.1 1028 hPa-
03/03/2021 15:3016.3 °C53 %6.7 °C3 km/hS11 km/h16.1 1029 hPa-
03/03/2021 15:1516.6 °C50 %6.1 °C6 km/hSSO11 km/h16.7 1029 hPa-
03/03/2021 15:0016.6 °C53 %6.7 °C3 km/hSSO11 km/h16.7 1029 hPa-
03/03/2021 14:4516.8 °C52 %6.7 °C10 km/hS11 km/h16.7 1029 hPa-
03/03/2021 14:3016.7 °C54 %7.2 °C6 km/hSSO11 km/h16.7 1029 hPa-
03/03/2021 14:1516.2 °C51 %6.1 °C5 km/hS11 km/h16.1 1029 hPa-
03/03/2021 14:0016.2 °C53 %6.7 °C5 km/hSSO11 km/h16.1 1029 hPa-
03/03/2021 13:4516.5 °C51 %6.1 °C3 km/hS11 km/h16.7 1029 hPa-
03/03/2021 13:3016.3 °C53 %6.7 °C5 km/hSSO11 km/h16.1 1030 hPa-
03/03/2021 13:1516.0 °C53 %6.1 °C3 km/hS10 km/h16.1 1030 hPa-
03/03/2021 13:0015.8 °C53 %6.1 °C3 km/hS10 km/h16.1 1030 hPa-
03/03/2021 12:4415.6 °C53 %6.1 °C3 km/hSSO10 km/h15.6 1030 hPa-
03/03/2021 12:2915.2 °C55 %6.1 °C3 km/hS10 km/h15.0 1031 hPa-
03/03/2021 12:1414.9 °C57 %6.1 °C3 km/hS8 km/h15.0 1031 hPa-
03/03/2021 11:5914.4 °C57 %6.1 °C3 km/hSSO8 km/h14.4 1030 hPa-
03/03/2021 11:4414.2 °C58 %6.1 °C5 km/hSSO8 km/h14.4 1031 hPa-
03/03/2021 11:2913.7 °C60 %6.1 °C5 km/hS8 km/h13.9 1031 hPa-
03/03/2021 11:1413.1 °C62 %6.1 °C3 km/hSSO8 km/h13.3 1031 hPa-
03/03/2021 10:5912.6 °C63 %5.6 °C5 km/hSO8 km/h12.8 1031 hPa-
03/03/2021 10:4411.7 °C66 %5.6 °C3 km/hSSO8 km/h11.7 1031 hPa-
03/03/2021 10:2911.1 °C67 %5.0 °C5 km/hSO8 km/h11.1 1031 hPa-
03/03/2021 10:1410.5 °C69 %5.0 °C5 km/hSSO8 km/h10.6 1031 hPa-
03/03/2021 09:5910.0 °C70 %5.0 °C6 km/hSSE8 km/h8.9 1031 hPa-
03/03/2021 09:449.4 °C72 %4.4 °C3 km/hSO8 km/h8.9 1031 hPa-
03/03/2021 09:298.8 °C73 %4.4 °C3 km/hSSO8 km/h8.3 1031 hPa-
03/03/2021 09:148.2 °C76 %4.4 °C3 km/hSSO8 km/h7.8 1031 hPa-
03/03/2021 09:007.6 °C77 %3.9 °C3 km/hSSO8 km/h7.2 1031 hPa-
03/03/2021 08:446.4 °C81 %3.3 °C5 km/hSSO5 km/h6.1 1031 hPa-
03/03/2021 08:305.9 °C80 %2.8 °C-S3 km/h6.1 1031 hPa-
03/03/2021 08:155.7 °C79 %2.2 °C-SSE3 km/h5.6 1031 hPa-
03/03/2021 08:005.6 °C78 %2.2 °C-SSE3 km/h5.6 1031 hPa-
03/03/2021 07:455.7 °C78 %2.2 °C-SSE3 km/h5.6 1030 hPa-
03/03/2021 07:305.7 °C78 %2.2 °C-S3 km/h5.6 1030 hPa-
03/03/2021 07:155.8 °C78 %2.2 °C-S3 km/h5.6 1030 hPa-
03/03/2021 07:006.0 °C76 %2.2 °C2 km/hS3 km/h6.1 1030 hPa-
03/03/2021 06:455.9 °C76 %2.2 °C-S3 km/h6.1 1030 hPa-
03/03/2021 06:305.9 °C76 %2.2 °C-SE3 km/h6.1 1030 hPa-
03/03/2021 06:155.8 °C76 %1.7 °C-SE3 km/h5.6 1030 hPa-
03/03/2021 06:005.9 °C75 %1.7 °C-SE3 km/h6.1 1030 hPa-
03/03/2021 05:456.1 °C75 %2.2 °C-SE3 km/h6.1 1030 hPa-
03/03/2021 05:306.4 °C74 %2.2 °C-SE3 km/h6.7 1030 hPa-
03/03/2021 05:156.8 °C74 %2.2 °C-SE3 km/h6.7 1030 hPa-
03/03/2021 05:007.2 °C73 %2.8 °C-SE3 km/h7.2 1030 hPa-
03/03/2021 04:457.1 °C73 %2.8 °C-SE3 km/h7.2 1030 hPa-
03/03/2021 04:297.1 °C73 %2.8 °C-SE3 km/h7.2 1030 hPa-
03/03/2021 04:147.1 °C73 %2.8 °C-SE3 km/h7.2 1030 hPa-
03/03/2021 03:597.2 °C73 %2.8 °C-SE3 km/h7.2 1030 hPa-
03/03/2021 03:447.3 °C74 %2.8 °C-SE3 km/h7.2 1030 hPa-
03/03/2021 03:297.4 °C74 %2.8 °C-SE3 km/h7.2 1030 hPa-
03/03/2021 03:147.4 °C73 %2.8 °C-SE3 km/h7.2 1030 hPa-
03/03/2021 02:597.5 °C73 %2.8 °C-SE3 km/h7.8 1030 hPa-
03/03/2021 02:447.7 °C72 %2.8 °C-SE3 km/h7.8 1030 hPa-
03/03/2021 02:298.2 °C70 %2.8 °C---8.3 1030 hPa-
03/03/2021 02:148.5 °C68 %2.8 °C---8.3 1030 hPa-
03/03/2021 01:598.3 °C68 %2.8 °C---8.3 1030 hPa-
03/03/2021 01:448.2 °C70 %2.8 °C---8.3 1030 hPa-
03/03/2021 01:298.3 °C70 %3.3 °C---8.3 1030 hPa-
03/03/2021 01:148.6 °C70 %3.3 °C---8.9 1030 hPa-
03/03/2021 00:599.3 °C67 %3.3 °C---9.4 1030 hPa-
03/03/2021 00:449.7 °C65 %3.3 °C---9.4 1030 hPa-
03/03/2021 00:299.7 °C63 %2.8 °C---9.4 1030 hPa-
03/03/2021 00:149.8 °C63 %2.8 °C---10.0 1030 hPa-


Minima :

Température : 5.6 °C
Humidité : 50 %
Point de rosée : 1.7 °C
Vent moyen : 2 km/h
Windchill : 5.6
Pression atm. : 1027 hPa
Maxima :

Température : 16.8 °C
Humidité : 81 %
Point de rosée : 7.8 °C
Vent moyen : 10 km/h
Windchill : 16.7
Pression atm. : 1031 hPa
Rafales max : 11 km/h
Cumul de pluie sur 24H : 0 mm

Saint-Firmin-des-Bois est une commune du département Loiret (45).
La station météorologique du réseau de l'association la plus proche de Saint-Firmin-des-Bois est celle de Cudot



Icône Facebook Association Météo Centre Icône Twitter Association Météo Centre Icône Chaîne Youtube Association Météo Centre Icône contact Association Météo Centre Icône Insta Association Météo Centre